Insider Trading activities of Lmi Aerospace Inc insiders.

Monthly summaries of insider trading activities (stock purchases, sales, and option exercises) reported by insiders of Lmi Aerospace Inc since 2005 are illustrated in Table 1 and Table 2. Table 1 shows the monthly insider trading data of Lmi Aerospace Inc since year 2005. Table 2 shows the detailed insider transactions of Lmi Aerospace Inc since 2005. The reporting company's ticker symbol is LMIA. The reporting company's CIK number is 1059562.
The total value of stock buying since 2005 is $100,146,742.
The total value of stock sales since 2005 is $53,665,095.
The total value of stock option exercises since 2005 is $211,202.


Table 1. Monthly summaries of insider stock purchases, sales, and option exercises for Lmi Aerospace Inc (LMIA).
Trading Period Insider Buying Insider Sales Option Exercises
year-month Shares Value Shares Value Shares Value
2017-06 0 $0 2,196,897 $30,756,558 0 $0
2016-06 0 $0 79,161 $660,223 0 $0
2015-12 0 $0 40,100 $405,148 0 $0
2015-11 0 $0 5,000 $52,900 0 $0
2015-09 0 $0 12,928 $151,705 0 $0
2015-08 15,000 $168,167 0 $0 0 $0
2015-07 10,000 $99,789 0 $0 0 $0
2015-06 201,000 $2,010,150 232,695 $2,326,492 0 $0
2015-05 2,000 $20,440 0 $0 0 $0
2015-03 0 $0 93,691 $1,253,414 0 $0
2015-02 0 $0 72,000 $1,027,832 0 $0
2015-01 0 $0 3,300 $47,430 0 $0
2014-12 0 $0 84,800 $1,184,500 0 $0
2014-11 0 $0 115,696 $1,586,989 0 $0
2014-09 0 $0 14,207 $196,609 0 $0
2014-08 0 $0 54,000 $799,326 0 $0
2014-06 0 $0 5,400 $70,237 0 $0
2014-03 0 $0 51,510 $723,158 0 $0
2011-01 0 $0 0 $0 3,500 $7,000
2010-12 2,452 $97,407,735 0 $0 0 $0
2010-03 0 $0 3,500 $65,415 3,500 $7,000
2009-12 7,200 $97,164 2,200 $29,150 4,000 $11,000
2009-05 5,950 $52,776 0 $0 0 $0
2009-03 36,022 $249,267 0 $0 15,255 $38,182
2008-11 0 $0 0 $0 15,000 $46,860
2008-10 0 $0 0 $0 15,000 $46,860
2008-09 0 $0 7,000 $171,542 7,000 $38,010
2007-12 0 $0 3,550 $94,681 3,000 $16,290
2007-08 0 $0 3,500 $79,093 0 $0
2007-03 0 $0 10,000 $197,650 0 $0
2006-06 0 $0 10,000 $171,300 0 $0
2006-03 0 $0 600,000 $9,300,000 0 $0
2005-12 0 $0 1,000 $14,000 0 $0
2005-11 0 $0 193,000 $2,111,013 0 $0
2005-08 0 $0 20,000 $170,480 0 $0
2005-06 9,047 $41,254 2,000 $10,240 0 $0
2005-05 0 $0 1,800 $8,010 0 $0

Table 2. Detailed insider stock purchases, sales, and option exercises of Lmi Aerospace Inc insiders (LMIA)
  Trade Date   Insider Name Trade Type     Shares       Price ($)   Value ($)
2017-06-27 Schrader Keith (V.P., OPERATIONS) Sale 9,630 14.00 134,820
2017-06-27 Wright David J. (VP CORPORATE AND BUSINESS DEV) Sale 6,856 14.00 95,984
2017-06-27 Schaffer Steven Kent Sale 19,063 14.00 266,882
2017-06-27 Pugh Rue Lynn (CORPORATE CONTROLLER) Sale 4,480 14.00 62,720
2017-06-27 Alfaro Jennifer (CHIEF HUMAN RESOURCES OFFICER) Sale 16,262 14.00 227,668
2017-06-27 Inman Jay (President-Engineering Services) Sale 6,221 14.00 87,094
2017-06-27 Skonier Renee (GENERAL COUNSEL & CCO) Sale 16,200 14.00 226,800
2017-06-27 Korte Daniel G. (CEO & PRESIDENT) Sale 172,929 14.00 2,421,006
2017-06-27 Stebe Clifford Jr. (V.P., CHIEF FINANCIAL OFFICER) Sale 32,688 14.00 457,632
2017-06-27 Northup Judith W Sale 43,217 14.00 605,038
2017-06-27 Eulich John S Sale 52,299 14.00 732,186
2017-06-27 Roeder John M Sale 61,160 14.00 856,240
2017-06-27 Neuman Sanford S Sale 273,575 14.00 3,830,050
2017-06-27 Resnick Lawrence J Sale 6,363 14.00 89,082
2017-06-27 Summe Gregory L Sale 1,440,339 14.00 20,164,746
2017-06-27 Daniels Gerald E Sale 35,615 14.00 498,610
2016-06-15 Saks Ronald S Sale 9,060 8.46 76,629
2016-06-14 Saks Ronald S Sale 6,000 8.44 50,640
2016-06-13 Saks Ronald S Sale 5,475 8.51 46,592
2016-06-09 Saks Ronald S Sale 23,213 8.28 192,134
2016-06-08 Saks Ronald S Sale 8,413 8.28 69,642
2016-06-07 Saks Ronald S Sale 18,000 8.27 148,788
2016-06-02 Saks Ronald S Sale 9,000 8.42 75,798
2015-12-31 Saks Ronald S Sale 3,400 10.10 34,340
2015-12-30 Saks Ronald S Sale 13,595 10.11 137,445
2015-12-29 Saks Ronald S Sale 4,557 10.10 46,025
2015-12-28 Saks Ronald S Sale 13,848 10.10 139,864
2015-12-24 Saks Ronald S Sale 2,300 10.10 23,230
2015-12-23 Saks Ronald S Sale 400 10.11 4,044
2015-12-07 Saks Ronald S Sale 900 10.10 9,090
2015-12-04 Saks Ronald S Sale 1,100 10.10 11,110
2015-11-25 Saks Ronald S Sale 5,000 10.58 52,900
2015-09-18 Saks Ronald S Sale 1,400 11.60 16,240
2015-09-16 Saks Ronald S Sale 5,058 11.65 58,950
2015-09-15 Saks Ronald S Sale 1,571 11.65 18,302
2015-09-04 Saks Ronald S Sale 390 11.76 4,586
2015-09-02 Saks Ronald S Sale 3,000 11.86 35,580
2015-09-01 Saks Ronald S Sale 1,509 11.96 18,047
2015-08-21 Korte Daniel G. (CEO & President) Buy 2,500 11.60 28,995
2015-08-20 Korte Daniel G. (CEO & President) Buy 2,500 11.52 28,795
2015-08-13 Korte Daniel G. (CEO & President) Buy 5,000 11.66 58,280
2015-08-07 Korte Daniel G. (CEO & President) Buy 2,500 10.55 26,365
2015-08-06 Korte Daniel G. (CEO & President) Buy 2,500 10.29 25,732
2015-07-30 Korte Daniel G. (CEO & President) Buy 5,000 10.02 50,119
2015-07-23 Korte Daniel G. (CEO & President) Buy 5,000 9.93 49,670
2015-06-30 Saks Ronald S Sale 32,695 9.99 326,492
2015-06-02 Summe Gregory L Buy 200,000 10.00 2,000,000
2015-06-02 Saks Ronald S Sale 200,000 10.00 2,000,000
2015-06-01 Demartino Joseph J. (Chief Operating Officer) Buy 1,000 10.15 10,150
2015-05-22 Stebe Clifford Jr. (V.P., Chief Financial Officer) Buy 2,000 10.22 20,440
2015-03-24 Saks Ronald S Sale 6,791 12.15 82,490
2015-03-20 Saks Ronald S Sale 3,546 12.51 44,360
2015-03-19 Saks Ronald S Sale 454 12.61 5,724
2015-03-18 Saks Ronald S Sale 27,000 12.57 339,390
2015-03-16 Saks Ronald S Sale 8,100 12.29 99,549
2015-03-09 Saks Ronald S Sale 11,800 14.27 168,409
2015-03-03 Saks Ronald S Sale 24,000 14.25 341,952
2015-03-02 Saks Ronald S Sale 12,000 14.29 171,540
2015-02-24 Saks Ronald S Sale 14,000 14.27 199,822
2015-02-23 Saks Ronald S Sale 22,000 14.28 314,050
2015-02-18 Saks Ronald S Sale 12,000 14.27 171,192
2015-02-17 Saks Ronald S Sale 24,000 14.28 342,768
2015-01-13 Saks Ronald S Sale 3,300 14.37 47,430
2014-12-29 Saks Ronald S Sale 3,700 14.21 52,595
2014-12-22 Saks Ronald S Sale 13,500 14.10 190,323
2014-12-16 Saks Ronald S Sale 7,800 14.02 109,332
2014-12-15 Saks Ronald S Sale 5,800 13.91 80,695
2014-12-09 Saks Ronald S Sale 16,780 14.00 234,936
2014-12-08 Saks Ronald S Sale 1,220 14.15 17,263
2014-12-01 Saks Ronald S Sale 36,000 13.87 499,356
2014-11-26 Grah Robert T (COO of Aerostr. Segmt.) Sale 7,046 14.06 99,101
2014-11-24 Grah Robert T (COO of Aerostr. Segmt.) Sale 650 14.03 9,116
2014-11-24 Saks Ronald S Sale 36,000 13.99 503,568
2014-11-17 Saks Ronald S Sale 36,000 13.73 494,208
2014-11-13 Saks Ronald S Sale 36,000 13.36 480,996
2014-09-12 Saks Ronald S Sale 7,000 13.67 95,711
2014-09-11 Saks Ronald S Sale 7,207 14.00 100,898
2014-08-27 Saks Ronald S Sale 11,000 15.05 165,572
2014-08-26 Saks Ronald S Sale 25,000 15.13 378,350
2014-08-15 Saks Ronald S Sale 10,915 14.12 154,174
2014-08-14 Saks Ronald S Sale 7,085 14.29 101,230
2014-06-30 Saks Ronald S Sale 5,400 13.01 70,237
2014-03-28 Biffignani Michael J (Chief Information Officer) Sale 5,613 14.00 78,582
2014-03-25 Saks Ronald S Sale 12,000 14.01 168,096
2014-03-24 Grah Robert T (COO of Aerostr. Segmt.) Sale 9,897 14.01 138,656
2014-03-24 Saks Ronald S Sale 24,000 14.08 337,824
2011-01-18 Dickinson Lawrence E (VP, CFO and Secretary) Option Ex 3,500 2.00 7,000
2010-12-31 Saks Ronald S (Chief Executive Officer) Buy 2,452 39,725.83 97,407,735
2010-03-30 Maness Cynthia G (VP of HR and Org. Dev.) Sale 3,500 18.69 65,415
2010-03-30 Maness Cynthia G (VP of HR and Org. Dev.) Option Ex 3,500 2.00 7,000
2009-12-31 Saks Ronald S (Chief Executive Officer) Buy 7,200 13.49 97,164
2009-12-28 Dickinson Lawrence E (Chief Financial Officer) Option Ex 4,000 2.75 11,000
2009-12-21 Dickinson Lawrence E (Chief Financial Officer) Sale 2,200 13.25 29,150
2009-05-15 Eulich John S Buy 5,950 8.87 52,776
2009-03-31 Burstein Joseph Buy 5,347 7.13 38,150
2009-03-30 Northup Judith W Buy 3,000 6.44 19,320
2009-03-30 Burstein Joseph Buy 19,653 6.55 128,825
2009-03-25 Saks Ronald S (President and CEO) Buy 8,022 7.85 62,972
2009-03-23 Roeder John M Option Ex 3,000 1.31 3,930
2009-03-11 Maness Cynthia G (VP of HR and Org. Dev.) Option Ex 12,255 2.79 34,252
2008-11-13 Neuman Sanford S Option Ex 15,000 3.12 46,860
2008-10-27 Burstein Joseph Option Ex 15,000 3.12 46,860
2008-09-19 Biffignani Michael J (Chief Information Officer) Sale 7,000 24.51 171,542
2008-09-19 Biffignani Michael J (Chief Information Officer) Option Ex 7,000 5.43 38,010
2007-12-28 Biffignani Michael J (Chief Information Officer) Sale 550 26.40 14,521
2007-12-27 Biffignani Michael J (Chief Information Officer) Sale 3,000 26.72 80,160
2007-12-27 Biffignani Michael J (Chief Information Officer) Option Ex 3,000 5.43 16,290
2007-08-20 Grah Robert T (Vice Pres., Central Operations) Sale 3,500 22.60 79,093
2007-03-19 Grah Robert T (Vice Pres., Central Operations) Sale 10,000 19.77 197,650
2006-06-23 Grah Robert T (VP Central Operations) Sale 10,000 17.13 171,300
2006-03-23 Neuman Sanford S Sale 75,000 15.50 1,162,500
2006-03-23 Burstein Joseph Sale 100,000 15.50 1,550,000
2006-03-23 Saks Ronald S (President and CEO) Sale 425,000 15.50 6,587,500
2005-12-06 Hahn Duane E Sale 1,000 14.00 14,000
2005-11-29 Hahn Duane E Sale 4,000 13.65 54,600
2005-11-28 Hahn Duane E Sale 9,000 13.12 118,125
2005-11-22 Hahn Duane E Sale 22,000 12.81 281,820
2005-11-21 Hahn Duane E Sale 148,000 10.39 1,537,868
2005-11-16 Grah Robert T (Vice Pres., Central) Sale 10,000 11.86 118,600
2005-08-22 Grah Robert T (Vice Pres., Central) Sale 10,000 8.61 86,140
2005-08-17 Grah Robert T (Vice Pres., Central) Sale 10,000 8.43 84,340
2005-06-30 Hahn Duane E Sale 2,000 5.12 10,240
2005-06-28 Dickinson Lawrence E (Chief Financial Officer) Buy 9,047 4.56 41,254
2005-05-27 Neuman Sanford S Sale 1,800 4.45 8,010

Insider trading activities including stock purchases, stock sales, and option exercises of LMIA listed in the above tables cannot be completely guaranteed as to their accuracy. For more insider trading information of Lmi Aerospace Inc (symbol LMIA, CIK number 1059562) see the Securities and Exchange Commission (SEC) website.